createdAt,value
2023-06-28T06:48:53.318Z,65.86
2023-06-28T06:49:53.281Z,64.55
2023-06-28T06:50:54.430Z,66.75
2023-06-28T06:51:54.383Z,63.06
2023-06-28T06:52:54.369Z,65.22
2023-06-28T06:53:54.350Z,62.52
2023-06-28T06:54:54.352Z,62.89
2023-06-28T06:55:54.336Z,64.79
2023-06-28T06:56:54.283Z,62.89
2023-06-28T06:57:54.270Z,62.63
2023-06-28T06:58:54.256Z,62.63
2023-06-28T06:59:54.270Z,61.77
2023-06-28T07:00:54.220Z,60.25
2023-06-28T07:01:54.240Z,61.85
2023-06-28T07:02:54.219Z,61.38
2023-06-28T07:03:54.155Z,61.87
2023-06-28T07:04:54.194Z,62.27
2023-06-28T07:05:54.185Z,60.48
2023-06-28T07:06:54.135Z,59.68
2023-06-28T07:07:54.071Z,58.68
2023-06-28T07:08:54.107Z,61.43
2023-06-28T07:09:54.114Z,63.56
2023-06-28T07:10:54.020Z,64.42
2023-06-28T07:11:53.996Z,64.39
2023-06-28T07:12:53.989Z,64.49
2023-06-28T07:13:53.990Z,63.86
2023-06-28T07:14:53.944Z,63.59
2023-06-28T07:15:53.938Z,63.76
2023-06-28T07:16:53.934Z,62.39
2023-06-28T07:17:53.952Z,64.62
2023-06-28T07:18:55.334Z,64.62
2023-06-28T07:19:54.846Z,65.69
2023-06-28T07:20:53.859Z,63.53
2023-06-28T07:21:53.805Z,62.22
2023-06-28T07:22:53.824Z,63.75
2023-06-28T07:23:53.796Z,63.85
2023-06-28T07:24:53.760Z,64.86
2023-06-28T07:25:53.731Z,66.19
2023-06-28T07:26:53.709Z,65.35
2023-06-28T07:27:53.721Z,66.45
2023-06-28T07:28:53.674Z,67.25
2023-06-28T07:29:53.658Z,66.42
2023-06-28T07:30:53.641Z,66.39
2023-06-28T07:31:53.749Z,66.69
2023-06-28T07:32:53.674Z,66.86
2023-06-28T07:33:53.622Z,65.66
2023-06-28T07:34:53.590Z,62.02
2023-06-28T07:35:53.561Z,62.12
2023-06-28T07:36:53.657Z,62.48
2023-06-28T07:37:53.508Z,62.45
2023-06-28T07:38:53.510Z,62.89
2023-06-28T07:39:53.470Z,61.89
2023-06-28T07:40:53.448Z,62.70
2023-06-28T07:41:53.452Z,64.09
2023-06-28T07:42:53.419Z,64.66
2023-06-28T07:43:53.387Z,61.33
2023-06-28T07:44:53.380Z,59.65
2023-06-28T07:45:53.472Z,60.16
2023-06-28T07:46:53.370Z,57.35
2023-06-28T07:47:53.341Z,56.12
2023-06-28T07:48:53.301Z,57.64
2023-06-28T07:49:53.298Z,57.94
2023-06-28T07:50:53.328Z,58.29
2023-06-28T07:51:53.242Z,59.30
2023-06-28T07:52:53.220Z,58.70
2023-06-28T07:53:53.220Z,59.35
2023-06-28T07:54:53.196Z,60.78
2023-06-28T07:55:53.205Z,58.91
2023-06-28T07:56:53.153Z,59.44
2023-06-28T07:57:53.139Z,60.03
2023-06-28T07:58:53.132Z,59.64
2023-06-28T07:59:53.136Z,59.09
2023-06-28T08:00:53.145Z,61.55
2023-06-28T08:01:53.061Z,61.85
2023-06-28T08:02:53.088Z,62.75
2023-06-28T08:03:53.066Z,63.68
2023-06-28T08:04:53.030Z,65.09
2023-06-28T08:05:52.978Z,63.78
2023-06-28T08:06:52.986Z,62.88
2023-06-28T08:07:52.959Z,65.09
2023-06-28T08:08:52.926Z,62.35
2023-06-28T08:09:52.933Z,62.12
2023-06-28T08:10:52.896Z,61.13
2023-06-28T08:11:52.868Z,62.15
2023-06-28T08:12:52.855Z,62.45
2023-06-28T08:13:52.859Z,58.41
2023-06-28T08:14:52.847Z,55.47
2023-06-28T08:15:52.789Z,55.74
2023-06-28T08:16:52.773Z,54.70
2023-06-28T08:17:52.814Z,53.70
2023-06-28T08:18:52.769Z,53.08
2023-06-28T08:19:52.717Z,54.25
2023-06-28T08:20:52.746Z,55.74
2023-06-28T08:21:52.687Z,53.53
2023-06-28T08:22:52.681Z,53.20
2023-06-28T08:23:52.669Z,52.17
2023-06-28T08:24:52.623Z,51.94
2023-06-28T08:25:52.607Z,51.37
2023-06-28T08:26:52.579Z,51.75
2023-06-28T08:27:52.597Z,53.38
2023-06-28T08:29:00.183Z,50.48
2023-06-28T08:29:54.538Z,50.93
2023-06-28T08:30:52.530Z,53.91
2023-06-28T08:31:52.526Z,55.25
2023-06-28T08:32:52.580Z,54.25
2023-06-28T08:33:52.457Z,53.48
2023-06-28T08:34:52.464Z,54.38
2023-06-28T08:35:52.443Z,51.18
2023-06-28T08:36:52.439Z,50.21
2023-06-28T08:37:52.417Z,50.83
2023-06-28T08:38:52.401Z,54.03
2023-06-28T08:39:52.433Z,54.06
2023-06-28T08:40:52.338Z,55.05
2023-06-28T08:41:52.344Z,54.21
2023-06-28T08:42:52.315Z,52.72
2023-06-28T08:43:52.280Z,52.47
2023-06-28T08:44:52.270Z,54.22
2023-06-28T08:45:52.257Z,51.62
2023-06-28T08:46:52.320Z,49.84
2023-06-28T08:47:52.222Z,49.40
2023-06-28T08:48:52.182Z,50.56
2023-06-28T08:49:52.169Z,47.27
2023-06-28T08:50:52.185Z,47.27
2023-06-28T08:51:52.177Z,48.16
2023-06-28T08:52:53.117Z,49.32
2023-06-28T08:53:52.093Z,47.72
2023-06-28T08:54:52.086Z,47.69
2023-06-28T08:55:52.087Z,46.11
2023-06-28T08:57:10.353Z,47.94
2023-06-28T08:57:54.071Z,50.18
2023-06-28T08:58:52.088Z,52.61
2023-06-28T08:59:51.988Z,51.84
2023-06-28T09:00:52.009Z,51.75
2023-06-28T09:01:51.980Z,53.91
2023-06-28T09:02:51.993Z,55.40
2023-06-28T09:03:52.008Z,56.32
2023-06-28T09:04:51.953Z,55.93
2023-06-28T09:05:51.913Z,57.06
2023-06-28T09:06:51.918Z,57.24
2023-06-28T09:07:51.845Z,54.58
2023-06-28T09:08:51.831Z,53.73
2023-06-28T09:09:51.842Z,55.00
2023-06-28T09:10:51.820Z,55.07
2023-06-28T09:11:51.774Z,51.03
2023-06-28T09:12:51.764Z,53.86
2023-06-28T09:13:51.752Z,51.54
2023-06-28T09:14:51.770Z,53.51
2023-06-28T09:15:51.705Z,53.88
2023-06-28T09:16:51.718Z,54.38
2023-06-28T09:17:51.791Z,53.38
2023-06-28T09:18:51.676Z,52.51
2023-06-28T09:19:51.658Z,53.61
2023-06-28T09:20:51.608Z,52.07
2023-06-28T09:21:51.596Z,51.03
2023-06-28T09:22:51.583Z,50.13
2023-06-28T09:23:51.587Z,49.10
2023-06-28T09:24:51.547Z,47.59
2023-06-28T09:25:52.406Z,47.59
2023-06-28T09:26:51.502Z,51.23
2023-06-28T09:27:51.489Z,49.37
2023-06-28T09:28:51.509Z,50.78
2023-06-28T09:29:51.446Z,53.88
2023-06-28T09:30:51.451Z,52.99
2023-06-28T09:31:51.430Z,54.44
2023-06-28T09:32:51.482Z,55.71
2023-06-28T09:33:54.957Z,58.24
2023-06-28T09:34:52.361Z,59.38
2023-06-28T09:35:51.377Z,62.45
2023-06-28T09:36:51.435Z,58.75
2023-06-28T09:37:51.357Z,56.66
2023-06-28T09:38:51.292Z,56.56
2023-06-28T09:39:51.267Z,58.68
2023-06-28T09:40:51.271Z,56.61
2023-06-28T09:41:51.236Z,58.01
2023-06-28T09:42:51.271Z,57.28
2023-06-28T09:43:51.205Z,56.56
2023-06-28T09:44:51.264Z,59.22
2023-06-28T09:45:51.245Z,59.49
2023-06-28T09:46:51.217Z,57.50
2023-06-28T09:47:51.186Z,56.08
2023-06-28T09:48:51.106Z,55.71
2023-06-28T09:49:51.080Z,56.70
2023-06-28T09:50:51.063Z,56.01
2023-06-28T09:51:51.073Z,55.91
2023-06-28T09:52:51.025Z,57.30
2023-06-28T09:53:51.003Z,59.39
2023-06-28T09:54:51.010Z,56.81
2023-06-28T09:55:50.984Z,57.80
2023-06-28T09:56:50.982Z,57.30
2023-06-28T09:57:50.935Z,56.60
2023-06-28T09:58:50.955Z,55.71
2023-06-28T09:59:50.903Z,55.51
2023-06-28T10:00:51.263Z,57.53
2023-06-28T10:01:50.891Z,55.83
2023-06-28T10:02:50.946Z,56.10
2023-06-28T10:03:50.973Z,56.01
2023-06-28T10:04:50.900Z,57.50
2023-06-28T10:05:50.824Z,56.03
2023-06-28T10:06:50.803Z,57.65
2023-06-28T10:07:50.751Z,56.53
2023-06-28T10:08:52.567Z,55.69
2023-06-28T10:09:50.742Z,60.11
2023-06-28T10:10:50.722Z,60.93
2023-06-28T10:11:50.678Z,59.53
2023-06-28T10:12:50.654Z,61.21
2023-06-28T10:13:50.638Z,58.38
2023-06-28T10:14:50.656Z,58.48
2023-06-28T10:15:50.616Z,59.88
2023-06-28T10:16:50.675Z,59.75
2023-06-28T10:17:50.614Z,60.09
2023-06-28T10:18:50.544Z,53.56
2023-06-28T10:19:50.565Z,53.99
2023-06-28T10:20:50.514Z,56.51
2023-06-28T10:21:50.500Z,57.70
2023-06-28T10:22:50.480Z,59.17
2023-06-28T10:23:50.492Z,55.33
2023-06-28T10:24:50.467Z,57.56
2023-06-28T10:25:50.423Z,60.02
2023-06-28T10:26:50.404Z,59.49
2023-06-28T10:27:50.388Z,59.69
2023-06-28T10:28:50.452Z,55.71
2023-06-28T10:29:50.352Z,55.98
2023-06-28T10:30:50.368Z,56.68
2023-06-28T10:31:51.119Z,56.23
2023-06-28T10:32:51.370Z,56.37
2023-06-28T10:33:50.311Z,59.15
2023-06-28T10:34:50.263Z,56.91
2023-06-28T10:35:50.248Z,53.61
2023-06-28T10:36:50.223Z,53.61
2023-06-28T10:37:50.734Z,50.23
2023-06-28T10:38:51.221Z,51.00
2023-06-28T10:39:50.168Z,55.95
2023-06-28T10:40:50.151Z,56.42
2023-06-28T10:41:50.134Z,55.50
2023-06-28T10:42:50.146Z,55.50
2023-06-28T10:43:50.092Z,55.20
2023-06-28T10:44:50.081Z,52.81
2023-06-28T10:45:50.109Z,54.24
2023-06-28T10:46:50.122Z,53.88
2023-06-28T10:47:50.081Z,54.53
2023-06-28T10:48:50.007Z,52.31
2023-06-28T10:49:50.320Z,55.29
2023-06-28T10:50:50.977Z,54.03
2023-06-28T10:51:49.991Z,49.96
2023-06-28T10:52:49.968Z,50.98
2023-06-28T10:53:49.948Z,52.09
2023-06-28T10:54:49.933Z,54.11
2023-06-28T10:55:49.881Z,51.00
2023-06-28T10:56:49.892Z,52.12
2023-06-28T10:57:49.847Z,52.22
2023-06-28T10:58:49.838Z,52.72
2023-06-28T10:59:49.808Z,51.42
2023-06-28T11:00:49.811Z,53.71
2023-06-28T11:01:49.838Z,52.51
2023-06-28T11:02:49.784Z,50.03
2023-06-28T11:03:49.739Z,49.73
2023-06-28T11:04:49.721Z,51.20
2023-06-28T11:05:49.728Z,50.01
2023-06-28T11:06:49.769Z,52.32
2023-06-28T11:07:49.672Z,51.05
2023-06-28T11:08:49.665Z,52.14
2023-06-28T11:09:49.631Z,53.27
2023-06-28T11:10:49.638Z,52.44
2023-06-28T11:11:49.590Z,52.62
2023-06-28T11:12:49.580Z,54.41
2023-06-28T11:13:49.898Z,54.48
2023-06-28T11:14:49.546Z,51.00
2023-06-28T11:15:49.561Z,51.30
2023-06-28T11:16:49.514Z,52.54
2023-06-28T11:17:49.530Z,51.65
2023-06-28T11:18:49.461Z,50.82
2023-06-28T11:19:49.478Z,49.23
2023-06-28T11:20:49.466Z,49.71
2023-06-28T11:21:49.413Z,47.97
2023-06-28T11:22:49.390Z,51.75
2023-06-28T11:23:49.380Z,50.35
2023-06-28T11:24:49.392Z,49.78
2023-06-28T11:25:49.358Z,49.78
2023-06-28T11:26:49.315Z,49.78
2023-06-28T11:27:49.300Z,47.70
2023-06-28T11:28:49.281Z,49.78
2023-06-28T11:29:49.289Z,49.61
2023-06-28T11:30:49.288Z,52.67
2023-06-28T11:31:49.241Z,50.10
2023-06-28T11:32:49.271Z,52.07
2023-06-28T11:33:49.217Z,51.84
2023-06-28T11:34:49.200Z,55.42
2023-06-28T11:35:49.165Z,54.23
2023-06-28T11:36:49.205Z,51.97
2023-06-28T11:37:49.113Z,49.46
2023-06-28T11:38:49.124Z,50.26
2023-06-28T11:39:49.087Z,49.04
2023-06-28T11:40:49.059Z,51.77
2023-06-28T11:41:49.084Z,48.52
2023-06-28T11:42:49.194Z,49.49
2023-06-28T11:43:49.043Z,52.67
2023-06-28T11:44:48.992Z,49.46
2023-06-28T11:45:48.982Z,47.75
2023-06-28T11:46:48.954Z,49.74
2023-06-28T11:47:48.972Z,48.14
2023-06-28T11:48:48.947Z,49.36
2023-06-28T11:49:48.902Z,50.85
2023-06-28T11:50:48.884Z,51.42
2023-06-28T11:51:48.871Z,49.93
2023-06-28T11:52:48.884Z,49.93
2023-06-28T11:53:48.831Z,51.82
2023-06-28T11:54:48.817Z,52.19
2023-06-28T11:55:48.802Z,51.12
2023-06-28T11:56:48.804Z,49.96
2023-06-28T11:57:48.781Z,49.74
2023-06-28T11:58:48.838Z,51.70
2023-06-28T11:59:48.733Z,52.49
2023-06-28T12:00:48.698Z,50.60
2023-06-28T12:01:48.717Z,52.72
2023-06-28T12:02:48.743Z,51.82
2023-06-28T12:03:48.749Z,48.05
2023-06-28T12:04:48.698Z,49.24
2023-06-28T12:05:48.603Z,48.57
2023-06-28T12:06:48.646Z,51.95
2023-06-28T12:07:48.565Z,54.06
2023-06-28T12:08:48.553Z,53.69
2023-06-28T12:09:51.162Z,51.97
2023-06-28T12:10:48.556Z,54.55
2023-06-28T12:11:48.531Z,52.26
2023-06-28T12:12:48.475Z,52.56
2023-06-28T12:13:48.461Z,50.88
2023-06-28T12:14:48.447Z,51.28
2023-06-28T12:15:48.505Z,51.67
2023-06-28T12:16:48.404Z,52.67
2023-06-28T12:17:48.415Z,49.29
2023-06-28T12:18:48.370Z,51.28
2023-06-28T12:19:48.359Z,49.88
2023-06-28T12:20:48.393Z,52.76
2023-06-28T12:21:48.316Z,50.28
2023-06-28T12:22:48.293Z,52.26
2023-06-28T12:23:48.275Z,48.41
2023-06-28T12:24:48.262Z,51.54
2023-06-28T12:25:48.270Z,53.02
2023-06-28T12:26:48.222Z,51.00
2023-06-28T12:27:48.194Z,52.29
2023-06-28T12:28:49.184Z,51.10
2023-06-28T12:29:48.192Z,52.69
2023-06-28T12:30:48.170Z,52.81
2023-06-28T12:31:48.278Z,54.41
2023-06-28T12:32:48.175Z,50.03
2023-06-28T12:33:50.920Z,51.25
2023-06-28T12:34:48.117Z,53.94
2023-06-28T12:35:48.047Z,53.14
2023-06-28T12:36:49.032Z,51.95
2023-06-28T12:37:48.019Z,52.34
2023-06-28T12:38:48.023Z,52.64
2023-06-28T12:39:48.011Z,52.54
2023-06-28T12:40:47.957Z,52.94
2023-06-28T12:41:47.942Z,52.74
2023-06-28T12:42:47.922Z,53.83
2023-06-28T12:43:47.965Z,51.95
2023-06-28T12:44:47.886Z,51.12
2023-06-28T12:45:47.865Z,52.19
2023-06-28T12:46:47.847Z,51.32
2023-06-28T12:47:47.885Z,52.12
2023-06-28T12:48:47.846Z,51.00
2023-06-28T12:49:47.824Z,55.18
2023-06-28T12:50:47.778Z,52.76
2023-06-28T12:51:47.754Z,54.06
2023-06-28T12:52:47.777Z,52.34
2023-06-28T12:53:47.749Z,48.19
2023-06-28T12:54:47.699Z,54.06
2023-06-28T12:55:47.680Z,54.06
2023-06-28T12:56:47.681Z,54.03
2023-06-28T12:57:47.676Z,51.54
2023-06-28T12:58:47.633Z,51.72
2023-06-28T12:59:47.612Z,52.02
2023-06-28T13:00:47.590Z,52.39
2023-06-28T13:01:47.690Z,49.24
2023-06-28T13:02:47.633Z,49.66
2023-06-28T13:03:47.542Z,51.70
2023-06-28T13:04:47.563Z,51.72
2023-06-28T13:05:47.502Z,54.76
2023-06-28T13:06:47.506Z,56.51
2023-06-28T13:07:47.490Z,57.81
2023-06-28T13:08:47.455Z,56.81
2023-06-28T13:09:47.549Z,52.39
2023-06-28T13:10:47.409Z,53.81
2023-06-28T13:11:47.420Z,54.71
2023-06-28T13:12:47.367Z,54.09
2023-06-28T13:13:47.347Z,54.46
2023-06-28T13:14:47.331Z,56.56
2023-06-28T13:15:47.346Z,55.26
2023-06-28T13:16:47.324Z,58.06
2023-06-28T13:17:47.297Z,55.46
2023-06-28T13:18:47.254Z,56.96
2023-06-28T13:19:47.262Z,60.55
2023-06-28T13:20:47.260Z,56.76
2023-06-28T13:21:47.237Z,57.73
2023-06-28T13:22:47.174Z,55.71
2023-06-28T13:23:47.157Z,55.11
2023-06-28T13:24:47.153Z,58.07
2023-06-28T13:25:47.155Z,56.08
2023-06-28T13:26:47.112Z,53.56
2023-06-28T13:27:47.088Z,54.93
2023-06-28T13:28:47.111Z,53.94
2023-06-28T13:29:47.088Z,51.75
2023-06-28T13:30:47.082Z,50.03
2023-06-28T13:31:47.027Z,50.95
2023-06-28T13:32:47.042Z,52.64
2023-06-28T13:33:46.983Z,49.90
2023-06-28T13:34:46.995Z,51.92
2023-06-28T13:35:46.937Z,52.32
2023-06-28T13:36:46.920Z,54.41
2023-06-28T13:37:46.908Z,53.89
2023-06-28T13:38:46.875Z,55.46
2023-06-28T13:39:46.895Z,54.36
2023-06-28T13:40:46.843Z,52.27
2023-06-28T13:41:46.824Z,54.06
2023-06-28T13:42:46.824Z,53.29
2023-06-28T13:43:46.821Z,54.51
2023-06-28T13:44:46.790Z,53.74
2023-06-28T13:45:46.756Z,55.54
2023-06-28T13:46:46.804Z,53.41
2023-06-28T13:47:46.732Z,54.21
2023-06-28T13:48:46.719Z,54.81
2023-06-28T13:49:46.665Z,52.29
2023-06-28T13:50:46.655Z,53.16
2023-06-28T13:51:46.636Z,52.29
2023-06-28T13:52:46.621Z,52.76
2023-06-28T13:53:46.626Z,53.61
2023-06-28T13:54:46.570Z,55.31
2023-06-28T13:55:46.554Z,52.51
2023-06-28T13:56:46.530Z,55.63
2023-06-28T13:57:46.542Z,58.00
2023-06-28T13:58:46.521Z,55.58
2023-06-28T13:59:46.480Z,53.83
2023-06-28T14:00:47.617Z,54.50
2023-06-28T14:01:46.449Z,53.71
2023-06-28T14:02:46.598Z,54.18
2023-06-28T14:03:46.404Z,52.86
2023-06-28T14:04:46.380Z,51.07
2023-06-28T14:05:46.369Z,50.98
2023-06-28T14:06:46.372Z,51.05
2023-06-28T14:07:46.355Z,49.01
2023-06-28T14:08:46.315Z,52.39
2023-06-28T14:09:46.285Z,51.89
2023-06-28T14:10:46.266Z,50.80
2023-06-28T14:11:46.310Z,51.40
2023-06-28T14:12:46.229Z,51.10
2023-06-28T14:13:46.208Z,53.41
2023-06-28T14:14:46.191Z,54.03
2023-06-28T14:15:46.172Z,55.63
2023-06-28T14:16:46.195Z,51.52
2023-06-28T14:17:46.147Z,51.52
2023-06-28T14:18:46.113Z,52.00
2023-06-28T14:19:46.088Z,52.19
2023-06-28T14:20:46.119Z,52.59
2023-06-28T14:21:46.088Z,51.37
2023-06-28T14:22:46.036Z,52.56
2023-06-28T14:23:46.027Z,50.28
2023-06-28T14:24:45.999Z,51.67
2023-06-28T14:25:46.015Z,50.18
2023-06-28T14:26:45.966Z,50.05
2023-06-28T14:27:45.945Z,50.56
2023-06-28T14:28:45.938Z,50.93
2023-06-28T14:29:45.912Z,51.03
2023-06-28T14:30:45.951Z,51.67
2023-06-28T14:31:45.869Z,50.78
2023-06-28T14:32:45.884Z,53.26
2023-06-28T14:33:45.831Z,52.47
2023-06-28T14:34:45.853Z,52.67
2023-06-28T14:35:45.817Z,54.65
2023-06-28T14:36:45.778Z,52.47
2023-06-28T14:37:45.757Z,51.57
2023-06-28T14:38:45.739Z,52.96
2023-06-28T14:39:45.758Z,52.94
2023-06-28T14:40:45.703Z,51.84
2023-06-28T14:41:45.685Z,51.25
2023-06-28T14:42:45.679Z,50.95
2023-06-28T14:43:45.649Z,51.17
2023-06-28T14:44:45.661Z,51.37
2023-06-28T14:45:45.884Z,51.10
2023-06-28T14:46:45.595Z,52.32
2023-06-28T14:47:45.635Z,52.34
2023-06-28T14:48:45.610Z,52.94
2023-06-28T14:49:45.565Z,53.64
2023-06-28T14:50:45.521Z,52.74
2023-06-28T14:51:45.504Z,53.74
2023-06-28T14:52:45.487Z,55.46
2023-06-28T14:53:45.510Z,55.05
2023-06-28T14:54:45.449Z,55.55
2023-06-28T14:55:45.556Z,56.85
2023-06-28T14:56:45.404Z,55.58
2023-06-28T14:57:45.423Z,54.36
2023-06-28T14:58:45.400Z,53.83
2023-06-28T14:59:45.998Z,54.03
2023-06-28T15:00:46.415Z,52.51
2023-06-28T15:01:45.348Z,53.81
2023-06-28T15:02:45.415Z,51.92
2023-06-28T15:03:45.439Z,51.30
2023-06-28T15:04:45.276Z,52.29
2023-06-28T15:05:45.490Z,52.51
2023-06-28T15:06:45.224Z,54.41
2023-06-28T15:07:45.234Z,52.02
2023-06-28T15:08:45.190Z,51.40
2023-06-28T15:09:45.176Z,53.66
2023-06-28T15:10:45.149Z,52.94
2023-06-28T15:11:45.167Z,55.02
2023-06-28T15:12:45.143Z,51.52
2023-06-28T15:13:45.100Z,51.92
2023-06-28T15:14:45.082Z,52.72
2023-06-28T15:15:45.451Z,52.19
2023-06-28T15:16:45.106Z,51.70
2023-06-28T15:17:45.089Z,50.18
2023-06-28T15:19:05.899Z,50.88
2023-06-28T15:20:05.912Z,50.76
2023-06-28T15:21:05.922Z,49.07
2023-06-28T15:22:05.899Z,49.59
2023-06-28T15:23:05.852Z,51.47
2023-06-28T15:24:06.968Z,52.49
2023-06-28T15:25:06.946Z,52.89
2023-06-28T15:26:06.986Z,51.20
2023-06-28T15:27:06.913Z,50.73
2023-06-28T15:28:06.890Z,51.82
2023-06-28T15:29:06.876Z,52.42
2023-06-28T15:30:06.867Z,52.72
2023-06-28T15:31:06.862Z,52.61
2023-06-28T15:32:06.820Z,52.22
2023-06-28T15:33:06.814Z,52.72
2023-06-28T15:34:06.777Z,52.22
2023-06-28T15:35:06.783Z,52.42
2023-06-28T15:36:06.770Z,53.01
2023-06-28T15:37:06.714Z,49.74
2023-06-28T15:38:06.702Z,51.95
2023-06-28T15:39:06.681Z,51.75
2023-06-28T15:40:06.708Z,52.96
2023-06-28T15:41:06.695Z,52.17
2023-06-28T15:42:06.621Z,52.29
2023-06-28T15:43:06.609Z,53.51
2023-06-28T15:44:06.588Z,55.03
2023-06-28T15:45:06.604Z,53.34
2023-06-28T15:46:06.600Z,53.64
2023-06-28T15:47:06.539Z,53.83
2023-06-28T15:48:06.628Z,53.56
2023-06-28T15:49:06.620Z,54.86
2023-06-28T15:50:06.574Z,54.36
2023-06-28T15:51:06.473Z,57.15
2023-06-28T15:52:06.448Z,56.48
2023-06-28T15:53:06.423Z,55.35
2023-06-28T15:54:06.440Z,55.55
2023-06-28T15:55:06.391Z,55.73
2023-06-28T15:56:06.366Z,55.73
2023-06-28T15:57:06.347Z,54.83
2023-06-28T15:58:06.332Z,55.95
2023-06-28T15:59:06.344Z,55.85
2023-06-28T16:00:06.301Z,55.05
2023-06-28T16:01:06.277Z,55.63
2023-06-28T16:02:06.261Z,56.02
2023-06-28T16:03:06.365Z,52.84
2023-06-28T16:04:06.406Z,54.63
2023-06-28T16:05:06.196Z,53.31
2023-06-28T16:06:06.188Z,53.21
2023-06-28T16:07:06.221Z,54.83
2023-06-28T16:08:06.167Z,53.02
2023-06-28T16:09:06.140Z,54.71
2023-06-28T16:10:06.106Z,53.81
2023-06-28T16:11:06.090Z,54.01
2023-06-28T16:12:06.103Z,54.50
2023-06-28T16:13:06.081Z,54.38
2023-06-28T16:14:06.027Z,54.58
2023-06-28T16:15:06.013Z,55.87
2023-06-28T16:16:06.004Z,55.57
2023-06-28T16:17:06.034Z,52.89
2023-06-28T16:18:05.986Z,54.08
2023-06-28T16:19:05.938Z,54.50
2023-06-28T16:20:05.913Z,56.07
2023-06-28T16:21:05.893Z,55.67
2023-06-28T16:22:05.911Z,54.21
2023-06-28T16:23:05.857Z,54.73
2023-06-28T16:24:05.839Z,54.43
2023-06-28T16:25:06.835Z,52.91
2023-06-28T16:26:05.837Z,54.80
2023-06-28T16:27:05.814Z,53.94
2023-06-28T16:28:05.770Z,54.96
2023-06-28T16:29:05.754Z,55.65
2023-06-28T16:30:05.748Z,55.55
2023-06-28T16:31:05.765Z,54.46
2023-06-28T16:32:05.695Z,55.55
2023-06-28T16:33:05.795Z,56.05
2023-06-28T16:34:05.667Z,57.54
2023-06-28T16:35:05.636Z,56.45
2023-06-28T16:36:05.640Z,54.96
2023-06-28T16:37:05.594Z,55.26
2023-06-28T16:38:05.580Z,56.55
2023-06-28T16:39:05.561Z,56.60
2023-06-28T16:40:05.563Z,56.90
2023-06-28T16:41:05.555Z,55.01
2023-06-28T16:42:05.496Z,56.40
2023-06-28T16:43:05.476Z,56.51
2023-06-28T16:44:06.212Z,56.90
2023-06-28T16:45:05.467Z,58.00
2023-06-28T16:46:05.422Z,58.50
2023-06-28T16:47:05.397Z,58.89
2023-06-28T16:48:05.485Z,58.89
2023-06-28T16:49:05.361Z,58.59
2023-06-28T16:50:05.366Z,57.60
2023-06-28T16:51:05.322Z,57.82
2023-06-28T16:52:05.334Z,57.73
2023-06-28T16:53:05.285Z,59.42
2023-06-28T16:54:05.292Z,59.42
2023-06-28T16:55:05.272Z,58.33
2023-06-28T16:56:05.306Z,59.52
2023-06-28T16:57:05.216Z,59.32
2023-06-28T16:58:05.191Z,59.65
2023-06-28T16:59:05.201Z,59.55
2023-06-28T17:00:05.154Z,59.85
2023-06-28T17:01:05.185Z,61.22
2023-06-28T17:02:05.149Z,59.05
2023-06-28T17:03:05.277Z,57.76
2023-06-28T17:04:05.104Z,58.06
2023-06-28T17:05:05.055Z,59.55
2023-06-28T17:06:05.036Z,59.95
2023-06-28T17:07:05.087Z,60.05
2023-06-28T17:08:05.031Z,60.05
2023-06-28T17:09:05.717Z,59.25
2023-06-28T17:10:04.966Z,59.15
2023-06-28T17:11:04.946Z,59.55
2023-06-28T17:12:04.921Z,58.36
2023-06-28T17:13:04.937Z,59.15
2023-06-28T17:14:04.899Z,59.85
2023-06-28T17:15:04.874Z,59.85
2023-06-28T17:16:04.871Z,58.38
2023-06-28T17:17:04.835Z,59.78
2023-06-28T17:18:04.899Z,60.08
2023-06-28T17:19:04.789Z,61.38
2023-06-28T17:22:01.941Z,62.81
2023-06-28T17:23:01.951Z,61.10
2023-06-28T17:24:01.904Z,62.50
2023-06-28T17:25:03.024Z,62.13
2023-06-28T17:26:03.005Z,61.73
2023-06-28T17:27:03.016Z,62.43
2023-06-28T17:28:02.953Z,63.93
2023-06-28T17:29:02.963Z,64.63
2023-06-28T17:30:03.034Z,65.03
2023-06-28T17:31:03.935Z,64.13
2023-06-28T17:32:02.935Z,64.93
2023-06-28T17:33:02.910Z,65.63
2023-06-28T17:34:03.720Z,66.23
2023-06-28T17:35:02.840Z,65.73
2023-06-28T17:36:02.837Z,66.46
2023-06-28T17:37:02.787Z,66.66
2023-06-28T17:38:02.785Z,66.06
2023-06-28T17:39:02.763Z,66.36
2023-06-28T17:40:02.730Z,66.49
2023-06-28T17:41:02.741Z,66.99
2023-06-28T17:42:02.690Z,66.69
2023-06-28T17:43:02.668Z,66.99
2023-06-28T17:44:03.608Z,66.79
2023-06-28T17:45:02.654Z,67.29
2023-06-28T17:46:02.645Z,68.19
2023-06-28T17:47:02.591Z,67.89
2023-06-28T17:48:02.618Z,68.29
2023-06-28T17:49:02.560Z,68.23
2023-06-28T17:50:02.609Z,68.52
2023-06-28T17:51:02.532Z,68.62
2023-06-28T17:52:02.495Z,68.23
2023-06-28T17:53:02.485Z,68.52
2023-06-28T17:54:02.458Z,68.82
2023-06-28T17:55:02.471Z,67.55
2023-06-28T17:56:02.439Z,68.16
2023-06-28T17:57:03.098Z,67.96
2023-06-28T17:58:02.381Z,68.86
2023-06-28T17:59:03.220Z,68.19
2023-06-28T18:00:02.397Z,69.59
2023-06-28T18:01:02.337Z,69.29
2023-06-28T18:02:02.446Z,69.19
2023-06-28T18:03:02.319Z,68.89
2023-06-28T18:04:02.304Z,68.79
2023-06-28T18:05:02.285Z,69.19
2023-06-28T18:06:03.241Z,69.49
2023-06-28T18:07:02.243Z,69.39
2023-06-28T18:08:02.242Z,69.73
2023-06-28T18:09:02.216Z,70.73
2023-06-28T18:10:02.158Z,69.93
2023-06-28T18:11:02.140Z,70.62
2023-06-28T18:12:02.146Z,70.36
2023-06-28T18:13:02.144Z,71.06
2023-06-28T18:14:02.114Z,70.96
2023-06-28T18:15:02.072Z,71.06
2023-06-28T18:16:02.061Z,71.30
2023-06-28T18:17:02.043Z,71.00
2023-06-28T18:18:02.095Z,71.09
2023-06-28T18:19:01.993Z,71.30
2023-06-28T18:20:01.995Z,72.60
2023-06-28T18:21:02.801Z,72.50
2023-06-28T18:22:02.933Z,72.53
2023-06-28T18:23:01.954Z,72.30
2023-06-28T18:24:01.918Z,72.63
2023-06-28T18:25:01.915Z,72.33
2023-06-28T18:26:01.884Z,72.53
2023-06-28T18:27:01.878Z,72.63
2023-06-28T18:28:01.878Z,72.24
2023-06-28T18:29:01.802Z,72.27
2023-06-28T18:30:02.810Z,73.17
2023-06-28T18:31:01.846Z,73.17
2023-06-28T18:32:01.805Z,73.81
2023-06-28T18:33:01.818Z,73.37
2023-06-28T18:34:01.717Z,73.77
2023-06-28T18:35:01.728Z,74.31
2023-06-28T18:36:01.680Z,73.77
2023-06-28T18:37:01.687Z,74.41
2023-06-28T18:38:01.639Z,74.51
2023-06-28T18:39:01.616Z,73.61
2023-06-28T18:40:01.659Z,73.91
2023-06-28T18:41:01.617Z,73.61
2023-06-28T18:42:01.592Z,73.61
2023-06-28T18:43:01.539Z,74.51
2023-06-28T18:44:01.526Z,74.41
2023-06-28T18:45:01.509Z,74.61
2023-06-28T18:46:01.515Z,74.31
2023-06-28T18:47:01.477Z,74.91
2023-06-28T18:48:01.484Z,74.21
2023-06-28T18:49:01.432Z,75.71
2023-06-28T18:50:01.413Z,74.55
2023-06-28T18:51:02.048Z,75.25
2023-06-28T18:52:01.371Z,75.65
2023-06-28T18:53:01.344Z,75.45
2023-06-28T18:54:01.333Z,76.76
2023-06-28T18:55:01.374Z,75.25
2023-06-28T18:56:01.335Z,75.45
2023-06-28T18:57:01.265Z,75.65
2023-06-28T18:58:01.254Z,76.05
2023-06-28T18:59:01.230Z,75.85
2023-06-28T19:00:01.291Z,75.65
2023-06-28T19:01:01.288Z,76.25
2023-06-28T19:02:01.446Z,75.95
2023-06-28T19:03:01.174Z,76.65
2023-06-28T19:04:01.149Z,75.95
2023-06-28T19:05:01.145Z,75.95
2023-06-28T19:06:01.104Z,75.95
2023-06-28T19:07:01.078Z,76.65
2023-06-28T19:08:01.045Z,76.25
2023-06-28T19:09:01.058Z,75.75
2023-06-28T19:10:01.041Z,76.76
2023-06-28T19:11:00.998Z,75.79
2023-06-28T19:12:01.150Z,76.79
2023-06-28T19:13:01.942Z,77.29
2023-06-28T19:14:00.968Z,77.50
2023-06-28T19:15:00.912Z,77.50
2023-06-28T19:16:00.889Z,76.59
2023-06-28T19:17:00.879Z,77.39
2023-06-28T19:18:00.943Z,77.39
2023-06-28T19:19:00.848Z,77.29
2023-06-28T19:20:00.806Z,77.73
2023-06-28T19:21:01.709Z,77.33
2023-06-28T19:22:00.784Z,78.14
2023-06-28T19:23:00.771Z,78.07
2023-06-28T19:24:00.751Z,78.47
2023-06-28T19:25:00.703Z,78.07
2023-06-28T19:26:00.684Z,78.58
2023-06-28T19:27:00.681Z,78.47
2023-06-28T19:28:00.688Z,78.91
2023-06-28T19:29:00.622Z,79.48
2023-06-28T19:30:00.605Z,79.08
2023-06-28T19:31:00.661Z,78.98
2023-06-28T19:32:00.565Z,78.67
2023-06-28T19:33:00.639Z,78.67
2023-06-28T19:34:00.533Z,78.67
2023-06-28T19:35:00.503Z,78.58
2023-06-28T19:36:00.493Z,78.58
2023-06-28T19:37:00.489Z,78.54
2023-06-28T19:38:00.486Z,78.64
2023-06-28T19:39:00.440Z,78.23
2023-06-28T19:40:00.395Z,78.44
2023-06-28T19:41:00.375Z,78.34
2023-06-28T19:42:00.412Z,78.14
2023-06-28T19:43:00.337Z,78.14